Time;durP1;ratioP1;P1;durP2;ratioP2;P2;SDS_P1;SDS_P2;PMS_P1;PMS_P2;Temp;Humidity;BMP_temperature;BMP_pressure;BME280_temperature;BME280_humidity;BME280_pressure;Samples;Min_cycle;Max_cycle;Signal;HPM_P1;HPM_P2
2022/03/13 00:02:03;;;;;;;19.43;11.43;;;8.90;99.90;;;;;;5036269;28;20231;-46
2022/03/13 00:04:29;;;;;;;19.27;11.93;;;8.90;99.90;;;;;;5036141;28;20197;-45
2022/03/13 00:07:00;;;;;;;17.83;11.93;;;8.90;99.90;;;;;;5036001;28;20204;-45
2022/03/13 00:09:26;;;;;;;19.43;11.70;;;8.80;99.90;;;;;;5034714;28;20170;-40
2022/03/13 00:11:53;;;;;;;16.07;11.53;;;8.80;99.90;;;;;;5035755;28;20256;-41
2022/03/13 00:14:20;;;;;;;16.77;11.67;;;8.80;99.90;;;;;;5035692;28;20184;-42
2022/03/13 00:16:47;;;;;;;18.83;11.97;;;8.70;99.90;;;;;;5017903;28;20268;-42
2022/03/13 00:19:13;;;;;;;18.00;12.07;;;8.70;99.90;;;;;;5035821;28;20199;-42
2022/03/13 00:21:39;;;;;;;21.33;11.37;;;8.70;99.90;;;;;;5035513;28;20185;-40
2022/03/13 00:24:07;;;;;;;17.40;11.33;;;8.70;99.90;;;;;;5035574;28;20184;-40
2022/03/13 00:26:35;;;;;;;15.83;11.37;;;8.70;99.90;;;;;;5035617;28;20274;-40
2022/03/13 00:29:00;;;;;;;17.97;11.70;;;8.80;99.90;;;;;;5035412;28;20193;-41
2022/03/13 00:31:26;;;;;;;18.80;11.27;;;8.80;99.90;;;;;;5017654;28;20189;-39
2022/03/13 00:33:52;;;;;;;19.03;11.47;;;8.80;99.90;;;;;;5035178;28;20568;-39
2022/03/13 00:36:19;;;;;;;17.70;10.83;;;8.80;99.90;;;;;;5036022;28;20223;-40
2022/03/13 00:38:44;;;;;;;19.13;12.00;;;8.80;99.90;;;;;;5017124;28;20216;-42
2022/03/13 00:41:10;;;;;;;19.33;11.97;;;8.80;99.90;;;;;;5017459;28;20176;-42
2022/03/13 00:43:36;;;;;;;19.17;12.67;;;8.80;99.90;;;;;;5035109;28;20311;-42
2022/03/13 00:46:01;;;;;;;22.33;11.50;;;8.70;99.90;;;;;;5017458;28;20224;-42
2022/03/13 00:48:27;;;;;;;14.63;11.13;;;8.70;99.90;;;;;;5035201;28;20288;-41
2022/03/13 00:50:53;;;;;;;17.70;12.10;;;8.70;99.90;;;;;;5034966;28;20169;-41
2022/03/13 00:53:18;;;;;;;17.87;12.20;;;8.70;99.90;;;;;;5035244;28;20656;-43
2022/03/13 00:55:44;;;;;;;18.20;12.10;;;8.70;99.90;;;;;;5035181;28;20177;-42
2022/03/13 00:58:10;;;;;;;20.17;12.77;;;8.70;99.90;;;;;;5034841;28;20550;-42
2022/03/13 01:00:35;;;;;;;18.03;11.77;;;8.60;99.90;;;;;;5017092;28;20189;-43
2022/03/13 01:03:01;;;;;;;16.83;11.67;;;8.70;99.90;;;;;;5035097;28;20572;-46
2022/03/13 01:05:28;;;;;;;20.63;12.83;;;8.70;99.90;;;;;;5035068;28;20227;-46
2022/03/13 01:07:55;;;;;;;19.93;13.10;;;8.60;99.90;;;;;;5034953;28;20199;-44
2022/03/13 01:10:21;;;;;;;23.53;13.33;;;8.60;99.90;;;;;;5034672;28;20257;-47
2022/03/13 01:12:53;;;;;;;19.43;12.90;;;8.60;99.90;;;;;;5034852;28;20268;-45
2022/03/13 01:15:19;;;;;;;19.23;12.20;;;8.60;99.90;;;;;;5034492;28;20581;-44
2022/03/13 01:17:45;;;;;;;19.27;11.93;;;8.50;99.90;;;;;;5034595;28;20196;-44
2022/03/13 01:20:21;;;;;;;21.27;12.90;;;8.50;99.90;;;;;;5016583;28;20660;-46
2022/03/13 01:22:47;;;;;;;17.27;11.33;;;8.50;99.90;;;;;;5016599;28;20173;-44
2022/03/13 01:25:13;;;;;;;17.50;11.93;;;8.50;99.90;;;;;;5034266;28;20181;-45
2022/03/13 01:27:39;;;;;;;19.00;12.30;;;8.40;99.90;;;;;;5034494;28;20528;-46
2022/03/13 01:30:06;;;;;;;17.70;12.43;;;8.40;99.90;;;;;;5034500;28;20181;-44
2022/03/13 01:32:33;;;;;;;18.67;12.47;;;8.40;99.90;;;;;;5034144;28;20200;-45
2022/03/13 01:34:59;;;;;;;18.30;12.07;;;8.40;99.90;;;;;;5016439;28;20250;-46
2022/03/13 01:37:36;;;;;;;18.23;11.90;;;8.30;99.90;;;;;;5034002;28;20687;-45
2022/03/13 01:40:08;;;;;;;21.00;11.77;;;8.30;99.90;;;;;;5016455;28;20252;-44
2022/03/13 01:42:44;;;;;;;19.93;11.83;;;8.30;99.90;;;;;;5034355;28;20287;-45
2022/03/13 01:45:15;;;;;;;20.03;11.80;;;8.20;99.90;;;;;;5033905;28;20610;-45
2022/03/13 01:47:41;;;;;;;18.77;12.60;;;8.20;99.90;;;;;;5033905;28;20208;-43
2022/03/13 01:50:19;;;;;;;18.67;12.37;;;8.10;99.90;;;;;;5016162;28;20180;-46
2022/03/13 01:52:49;;;;;;;17.47;11.90;;;8.10;99.90;;;;;;5034446;28;20157;-47
2022/03/13 01:55:19;;;;;;;19.10;12.50;;;8.00;99.90;;;;;;5016156;28;20268;-44
2022/03/13 01:57:47;;;;;;;22.67;13.50;;;7.90;99.90;;;;;;5016466;28;20673;-48
2022/03/13 02:00:17;;;;;;;16.83;11.90;;;7.80;99.90;;;;;;5034007;28;20181;-44
2022/03/13 02:02:46;;;;;;;17.70;12.23;;;7.70;99.90;;;;;;5016904;28;20173;-43
2022/03/13 02:05:34;;;;;;;18.30;11.53;;;7.60;99.90;;;;;;5037215;28;20181;-46
2022/03/13 02:08:05;;;;;;;21.13;12.23;;;7.60;99.90;;;;;;5041209;28;20239;-45
2022/03/13 02:10:31;;;;;;;18.07;12.23;;;7.50;99.90;;;;;;5036167;28;20165;-46
2022/03/13 02:12:58;;;;;;;18.90;11.90;;;7.40;99.90;;;;;;5033510;28;20169;-45
2022/03/13 02:15:31;;;;;;;18.13;11.77;;;7.40;99.90;;;;;;5034213;28;20256;-40
2022/03/13 02:18:03;;;;;;;17.17;11.77;;;7.30;99.90;;;;;;5033894;28;20189;-42
2022/03/13 02:20:29;;;;;;;15.70;10.83;;;7.30;99.90;;;;;;5034040;28;20199;-44
2022/03/13 02:23:05;;;;;;;17.37;10.97;;;7.20;99.90;;;;;;5033858;28;20169;-45
2022/03/13 02:25:34;;;;;;;16.00;10.27;;;7.20;99.90;;;;;;5033382;28;20208;-48
2022/03/13 02:28:01;;;;;;;19.30;10.53;;;7.20;99.90;;;;;;5015720;28;20211;-40
2022/03/13 02:30:27;;;;;;;17.13;10.07;;;7.10;99.90;;;;;;5033878;28;20187;-46
2022/03/13 02:32:53;;;;;;;17.07;10.07;;;7.10;99.90;;;;;;5033097;28;20204;-42
2022/03/13 02:35:20;;;;;;;15.07;10.57;;;7.10;99.90;;;;;;5016282;28;20200;-40
2022/03/13 02:37:47;;;;;;;14.93;10.57;;;7.00;99.90;;;;;;5033798;28;20537;-40
2022/03/13 02:40:30;;;;;;;15.80;9.63;;;7.00;99.90;;;;;;5033581;28;20579;-46
2022/03/13 02:43:00;;;;;;;17.47;11.23;;;6.90;99.90;;;;;;5016463;28;20159;-39
2022/03/13 02:45:34;;;;;;;13.90;8.63;;;6.90;99.90;;;;;;5015884;28;20181;-45
2022/03/13 02:48:02;;;;;;;13.27;8.20;;;6.90;99.90;;;;;;5033949;28;20637;-42
2022/03/13 02:50:27;;;;;;;17.23;8.90;;;6.90;99.90;;;;;;5033269;28;20183;-40
2022/03/13 02:52:53;;;;;;;13.43;7.53;;;7.00;99.90;;;;;;5033150;28;20641;-41
2022/03/13 02:55:20;;;;;;;14.37;9.13;;;7.00;99.90;;;;;;5033506;28;20180;-40
2022/03/13 02:57:47;;;;;;;15.23;9.63;;;7.00;99.90;;;;;;5033094;28;20204;-40
2022/03/13 03:00:16;;;;;;;14.70;9.83;;;7.00;99.90;;;;;;5033110;28;20271;-41
2022/03/13 03:02:43;;;;;;;14.97;9.70;;;7.10;99.90;;;;;;5015531;28;20185;-42
2022/03/13 03:05:09;;;;;;;17.57;10.13;;;7.10;99.90;;;;;;5033156;28;20591;-40
2022/03/13 03:07:36;;;;;;;15.50;9.60;;;7.10;99.90;;;;;;5033612;28;20224;-45
2022/03/13 03:10:03;;;;;;;15.80;10.60;;;7.10;99.90;;;;;;5016193;28;20244;-46
2022/03/13 03:12:30;;;;;;;15.70;9.73;;;7.10;99.90;;;;;;5033675;28;20216;-45
2022/03/13 03:14:56;;;;;;;15.17;10.47;;;7.20;99.90;;;;;;5034031;28;20199;-46
2022/03/13 03:17:22;;;;;;;12.83;8.60;;;7.20;99.90;;;;;;5034211;28;20201;-48
2022/03/13 03:19:49;;;;;;;15.57;9.97;;;7.20;99.90;;;;;;5017698;28;20212;-45
2022/03/13 03:22:15;;;;;;;16.93;10.63;;;7.20;99.90;;;;;;5001847;28;20558;-46
2022/03/13 03:24:41;;;;;;;14.97;9.53;;;7.20;99.90;;;;;;5001201;28;20276;-46
2022/03/13 03:27:07;;;;;;;14.53;9.33;;;7.20;99.90;;;;;;5033843;28;20240;-47
2022/03/13 03:29:32;;;;;;;14.07;9.17;;;7.10;99.90;;;;;;5034122;28;20178;-44
2022/03/13 03:31:58;;;;;;;17.20;9.27;;;7.20;99.90;;;;;;5033653;28;20180;-47
2022/03/13 03:34:26;;;;;;;14.73;10.07;;;7.10;99.90;;;;;;5016181;28;20192;-44
2022/03/13 03:37:02;;;;;;;13.07;9.03;;;7.20;99.90;;;;;;5033544;28;20604;-44
2022/03/13 03:39:30;;;;;;;14.97;10.00;;;7.20;99.90;;;;;;5033683;28;20208;-46
2022/03/13 03:41:56;;;;;;;17.23;10.87;;;7.10;99.90;;;;;;5015979;28;20196;-45
2022/03/13 03:44:23;;;;;;;16.73;10.07;;;7.10;99.90;;;;;;5036850;28;20197;-47
2022/03/13 03:46:50;;;;;;;18.20;10.03;;;7.10;99.90;;;;;;5019163;28;20705;-45
2022/03/13 03:49:17;;;;;;;13.63;9.73;;;7.10;99.90;;;;;;5037228;28;20176;-45
2022/03/13 03:51:43;;;;;;;15.47;8.97;;;7.10;99.90;;;;;;5036800;28;20200;-46
2022/03/13 03:54:09;;;;;;;14.80;9.17;;;7.10;99.90;;;;;;5036901;28;20543;-46
2022/03/13 03:56:36;;;;;;;14.50;9.73;;;7.10;99.90;;;;;;5037076;28;20192;-44
2022/03/13 03:59:05;;;;;;;15.20;9.00;;;7.10;99.90;;;;;;5019561;28;20298;-46
2022/03/13 04:01:43;;;;;;;13.97;8.97;;;7.10;99.90;;;;;;5036719;28;20181;-45
2022/03/13 04:04:09;;;;;;;13.87;8.00;;;7.10;99.90;;;;;;5037281;28;20191;-47
2022/03/13 04:06:38;;;;;;;13.87;8.57;;;7.20;99.90;;;;;;5036710;28;20207;-46
2022/03/13 04:09:05;;;;;;;14.33;9.50;;;7.10;99.90;;;;;;5036503;28;20703;-45
2022/03/13 04:11:31;;;;;;;18.10;10.07;;;7.20;99.90;;;;;;5018914;28;20180;-44
2022/03/13 04:13:58;;;;;;;14.67;9.20;;;7.20;99.90;;;;;;5037127;28;20169;-46
2022/03/13 04:16:24;;;;;;;12.63;7.07;;;7.10;99.90;;;;;;5018822;28;20217;-44
2022/03/13 04:18:50;;;;;;;11.47;7.53;;;7.20;99.90;;;;;;5036929;28;20680;-44
2022/03/13 04:21:16;;;;;;;10.87;6.90;;;7.10;99.90;;;;;;5036611;28;20212;-45
2022/03/13 04:23:42;;;;;;;12.33;7.83;;;7.10;99.90;;;;;;5036547;28;20183;-45
2022/03/13 04:26:08;;;;;;;13.33;8.80;;;7.10;99.90;;;;;;5036373;28;20211;-45
2022/03/13 04:28:33;;;;;;;16.70;8.97;;;7.10;99.90;;;;;;5036045;28;20673;-44
2022/03/13 04:31:00;;;;;;;13.13;8.83;;;7.10;99.90;;;;;;5036573;28;20177;-46
2022/03/13 04:33:33;;;;;;;18.57;8.87;;;7.10;99.90;;;;;;5018350;28;20566;-44
2022/03/13 04:36:00;;;;;;;16.37;8.07;;;7.10;99.90;;;;;;5019142;28;20215;-45
2022/03/13 04:38:28;;;;;;;14.83;9.33;;;7.20;99.90;;;;;;5036483;28;20214;-46
2022/03/13 04:40:55;;;;;;;14.57;8.50;;;7.10;99.90;;;;;;5036500;28;20573;-46
2022/03/13 04:43:22;;;;;;;13.87;8.63;;;7.20;99.90;;;;;;5018618;28;20556;-44
2022/03/13 04:45:49;;;;;;;9.77;6.40;;;7.20;99.90;;;;;;5036133;28;20359;-45
2022/03/13 04:48:17;;;;;;;12.67;8.93;;;7.20;99.90;;;;;;5036334;28;20564;-44
2022/03/13 04:50:43;;;;;;;12.97;8.37;;;7.20;99.90;;;;;;5036303;28;20173;-44
2022/03/13 04:53:09;;;;;;;17.33;8.73;;;7.20;99.90;;;;;;5035924;28;20665;-44
2022/03/13 04:55:35;;;;;;;18.47;8.37;;;7.20;99.90;;;;;;5035344;28;20179;-46
2022/03/13 04:58:01;;;;;;;15.47;9.57;;;7.10;99.90;;;;;;5018060;28;20201;-46
2022/03/13 05:00:27;;;;;;;16.60;7.73;;;7.10;99.90;;;;;;5035952;28;20179;-46
2022/03/13 05:02:56;;;;;;;13.37;7.07;;;7.10;99.90;;;;;;5018478;28;20184;-44
2022/03/13 05:05:24;;;;;;;14.87;8.10;;;7.10;99.90;;;;;;5035484;28;20207;-45
2022/03/13 05:07:49;;;;;;;17.13;9.63;;;7.10;99.90;;;;;;5035946;28;20215;-46
2022/03/13 05:10:20;;;;;;;16.20;8.53;;;7.10;99.90;;;;;;5017995;28;20650;-46
2022/03/13 05:12:47;;;;;;;16.40;9.57;;;7.00;99.90;;;;;;5036123;28;20181;-45
2022/03/13 05:15:14;;;;;;;12.90;8.87;;;7.00;99.90;;;;;;5036168;28;20181;-45
2022/03/13 05:17:40;;;;;;;14.63;9.00;;;7.00;99.90;;;;;;5035911;28;20215;-45
2022/03/13 05:20:08;;;;;;;12.73;9.10;;;7.00;99.90;;;;;;5001793;28;20196;-45
2022/03/13 05:22:34;;;;;;;13.27;6.60;;;7.00;99.90;;;;;;5036536;28;20180;-43
2022/03/13 05:25:00;;;;;;;13.73;8.07;;;6.90;99.90;;;;;;5002631;28;20653;-43
2022/03/13 05:27:25;;;;;;;13.47;8.30;;;7.00;99.90;;;;;;5039870;28;20286;-45
2022/03/13 05:29:51;;;;;;;10.73;6.63;;;7.00;99.90;;;;;;5040361;28;20665;-45
2022/03/13 05:32:17;;;;;;;11.80;7.73;;;7.00;99.90;;;;;;5035789;28;20517;-45
2022/03/13 05:34:44;;;;;;;14.83;9.07;;;7.00;99.90;;;;;;5035223;28;20552;-44
2022/03/13 05:37:10;;;;;;;12.93;8.83;;;7.00;99.90;;;;;;5035128;28;20200;-46
2022/03/13 05:39:36;;;;;;;15.37;8.77;;;7.00;99.90;;;;;;5017183;28;20223;-45
2022/03/13 05:42:06;;;;;;;13.97;8.47;;;7.00;99.90;;;;;;5034905;28;20235;-47
2022/03/13 05:44:33;;;;;;;13.53;8.63;;;7.10;99.90;;;;;;5035062;28;20208;-46
2022/03/13 05:46:58;;;;;;;14.10;8.27;;;7.10;99.90;;;;;;5017519;28;20200;-46
2022/03/13 05:49:24;;;;;;;12.83;8.70;;;7.10;99.90;;;;;;5035080;28;20597;-44
2022/03/13 05:51:49;;;;;;;14.03;8.93;;;7.10;99.90;;;;;;5034872;28;20196;-46
2022/03/13 05:54:15;;;;;;;10.93;7.40;;;7.10;99.90;;;;;;5035458;28;20181;-43
2022/03/13 05:56:41;;;;;;;13.47;8.47;;;7.10;99.90;;;;;;5035164;28;20189;-46
2022/03/13 05:59:08;;;;;;;13.63;8.37;;;7.10;99.90;;;;;;5035197;28;20188;-47
2022/03/13 06:01:34;;;;;;;13.53;8.33;;;7.10;99.90;;;;;;5034763;28;20197;-46
2022/03/13 06:03:59;;;;;;;11.93;7.23;;;7.10;99.90;;;;;;5035031;28;20272;-44
2022/03/13 06:06:25;;;;;;;13.07;8.00;;;7.10;99.90;;;;;;5033927;28;20211;-45
2022/03/13 06:08:50;;;;;;;11.77;8.57;;;7.10;99.90;;;;;;5034759;28;20209;-45
2022/03/13 06:11:16;;;;;;;16.13;8.90;;;7.10;99.90;;;;;;5034859;28;20187;-45
2022/03/13 06:13:42;;;;;;;14.90;8.70;;;7.10;99.90;;;;;;5016977;28;20258;-46
2022/03/13 06:16:08;;;;;;;15.17;9.83;;;7.10;99.90;;;;;;5034793;28;20272;-44
2022/03/13 06:18:34;;;;;;;13.13;8.80;;;7.00;99.90;;;;;;5034921;28;20242;-45
2022/03/13 06:21:01;;;;;;;12.60;8.50;;;7.10;99.90;;;;;;5034529;28;20241;-40
2022/03/13 06:23:28;;;;;;;16.30;10.03;;;7.00;99.90;;;;;;5033404;28;20210;-40
2022/03/13 06:25:57;;;;;;;11.93;7.23;;;7.00;99.90;;;;;;5033210;28;20692;-41
2022/03/13 06:28:26;;;;;;;14.13;8.93;;;7.00;99.90;;;;;;5033550;28;20231;-41
2022/03/13 06:30:55;;;;;;;18.60;8.80;;;7.00;99.90;;;;;;5033914;28;20188;-41
2022/03/13 06:33:21;;;;;;;18.77;8.07;;;7.00;99.90;;;;;;5033359;28;20571;-40
2022/03/13 06:35:47;;;;;;;10.57;6.57;;;7.10;99.90;;;;;;5033988;28;20195;-42
2022/03/13 06:38:13;;;;;;;14.73;8.83;;;7.10;99.90;;;;;;5033286;28;20200;-40
2022/03/13 06:40:38;;;;;;;13.73;8.97;;;7.00;99.90;;;;;;5033297;28;20183;-43
2022/03/13 06:43:04;;;;;;;13.93;8.87;;;7.10;99.90;;;;;;5033563;28;20173;-40
2022/03/13 06:45:30;;;;;;;13.20;7.07;;;7.10;99.90;;;;;;5015568;28;20224;-41
2022/03/13 06:47:55;;;;;;;11.93;8.43;;;7.10;99.90;;;;;;5033382;28;20227;-40
2022/03/13 06:50:25;;;;;;;12.93;8.13;;;7.10;99.90;;;;;;5033248;28;20177;-41
2022/03/13 06:52:53;;;;;;;21.57;8.03;;;7.00;99.90;;;;;;5033511;28;20173;-39
2022/03/13 06:55:21;;;;;;;11.67;7.67;;;7.10;99.90;;;;;;5015714;28;20184;-42
2022/03/13 06:57:47;;;;;;;12.90;8.67;;;7.20;99.90;;;;;;5015465;28;20286;-38
2022/03/13 07:00:15;;;;;;;11.70;7.63;;;7.10;99.90;;;;;;5033114;28;20671;-41
2022/03/13 07:02:40;;;;;;;11.87;8.17;;;7.10;99.90;;;;;;5033369;28;20184;-38
2022/03/13 07:05:06;;;;;;;11.70;7.57;;;7.10;99.90;;;;;;5033108;28;20191;-38
2022/03/13 07:07:32;;;;;;;13.17;8.53;;;7.10;99.90;;;;;;5015160;28;20223;-42
2022/03/13 07:09:57;;;;;;;16.83;9.23;;;7.10;99.90;;;;;;5032989;28;20191;-40
2022/03/13 07:12:24;;;;;;;13.37;6.53;;;7.20;99.90;;;;;;5033638;28;20258;-41
2022/03/13 07:14:51;;;;;;;15.40;9.43;;;7.20;99.90;;;;;;5033169;28;20183;-42
2022/03/13 07:17:18;;;;;;;12.63;7.80;;;7.20;99.90;;;;;;5033607;28;20215;-41
2022/03/13 07:19:45;;;;;;;14.60;9.10;;;7.20;99.90;;;;;;5036764;28;20184;-41
2022/03/13 07:22:12;;;;;;;12.67;8.50;;;7.20;99.90;;;;;;5036916;28;20173;-41
2022/03/13 07:24:37;;;;;;;19.17;8.43;;;7.30;99.90;;;;;;5019044;28;20192;-42
2022/03/13 07:27:03;;;;;;;14.53;9.20;;;7.30;99.90;;;;;;5036488;28;20218;-40
2022/03/13 07:29:29;;;;;;;16.20;8.83;;;7.40;99.90;;;;;;5036595;28;20186;-41
2022/03/13 07:31:56;;;;;;;15.37;9.40;;;7.40;99.90;;;;;;5036505;28;20212;-40
2022/03/13 07:34:27;;;;;;;15.20;9.10;;;7.50;99.90;;;;;;5036760;28;20206;-40
2022/03/13 07:36:53;;;;;;;15.00;9.33;;;7.50;99.90;;;;;;5036885;28;20574;-41
2022/03/13 07:39:21;;;;;;;11.97;7.87;;;7.60;99.90;;;;;;5018634;28;20603;-41
2022/03/13 07:41:47;;;;;;;13.57;8.47;;;7.70;99.90;;;;;;5036340;28;20266;-42
2022/03/13 07:44:13;;;;;;;16.37;7.97;;;7.70;99.90;;;;;;5036297;28;20592;-40
2022/03/13 07:46:38;;;;;;;18.17;9.00;;;7.70;99.90;;;;;;5036325;28;20205;-44
2022/03/13 07:49:04;;;;;;;17.03;9.50;;;7.80;99.90;;;;;;5036101;28;20661;-42
2022/03/13 07:51:30;;;;;;;14.23;8.37;;;7.80;99.90;;;;;;5036512;28;20267;-40
2022/03/13 07:53:55;;;;;;;18.90;8.97;;;7.80;99.90;;;;;;5036714;28;20181;-43
2022/03/13 07:56:23;;;;;;;11.93;7.17;;;7.80;99.90;;;;;;5036595;28;20196;-42
2022/03/13 07:58:49;;;;;;;16.60;10.30;;;7.80;99.90;;;;;;5036346;28;20211;-40
2022/03/13 08:01:14;;;;;;;15.27;8.37;;;7.90;99.90;;;;;;5036098;28;20256;-45
2022/03/13 08:03:44;;;;;;;13.53;9.03;;;8.00;99.90;;;;;;5036206;28;20177;-45
2022/03/13 08:06:10;;;;;;;14.67;9.20;;;7.90;99.90;;;;;;5035864;28;20246;-46
2022/03/13 08:08:36;;;;;;;13.40;8.73;;;8.00;99.90;;;;;;5035940;28;20196;-46
2022/03/13 08:11:01;;;;;;;19.20;9.43;;;8.10;99.90;;;;;;5035801;28;20641;-45
2022/03/13 08:13:27;;;;;;;15.37;9.70;;;8.10;99.90;;;;;;5018133;28;20210;-42
2022/03/13 08:15:53;;;;;;;14.23;9.23;;;8.20;99.90;;;;;;5018036;28;20192;-46
2022/03/13 08:18:18;;;;;;;15.03;8.77;;;8.30;99.90;;;;;;5018135;28;20201;-45
2022/03/13 08:20:44;;;;;;;12.53;8.67;;;8.30;99.90;;;;;;5035590;28;20280;-46
2022/03/13 08:23:10;;;;;;;17.20;10.07;;;8.40;99.90;;;;;;5035575;28;20271;-46
2022/03/13 08:25:36;;;;;;;14.80;9.60;;;8.50;99.90;;;;;;5035421;28;20621;-45
2022/03/13 08:28:01;;;;;;;13.13;8.67;;;8.60;99.90;;;;;;5035644;28;20271;-44
2022/03/13 08:30:27;;;;;;;15.67;8.57;;;8.60;99.90;;;;;;5035194;28;20185;-44
2022/03/13 08:32:54;;;;;;;14.40;9.43;;;8.70;99.90;;;;;;5035400;28;20192;-46
2022/03/13 08:35:20;;;;;;;17.77;9.70;;;8.80;99.90;;;;;;5035844;28;20643;-46
2022/03/13 08:37:45;;;;;;;17.77;9.90;;;9.00;99.90;;;;;;5035773;28;20201;-45
2022/03/13 08:40:12;;;;;;;20.00;10.27;;;9.10;99.90;;;;;;5036513;28;20191;-46
2022/03/13 08:42:38;;;;;;;14.17;9.47;;;9.20;99.90;;;;;;5036143;28;20271;-45
2022/03/13 08:45:05;;;;;;;18.27;9.63;;;9.30;99.90;;;;;;5035089;28;20242;-44
2022/03/13 08:47:30;;;;;;;15.00;9.60;;;9.40;99.90;;;;;;5035157;28;20220;-45
2022/03/13 08:49:56;;;;;;;14.07;9.63;;;9.50;99.90;;;;;;5035276;28;20268;-45
2022/03/13 08:52:22;;;;;;;11.40;7.50;;;9.60;99.90;;;;;;5034971;28;20176;-46
2022/03/13 08:54:48;;;;;;;14.83;8.97;;;9.70;99.90;;;;;;5017168;28;20180;-44
2022/03/13 08:57:14;;;;;;;15.87;10.30;;;9.70;99.90;;;;;;5034884;28;20212;-44
2022/03/13 08:59:40;;;;;;;18.53;10.53;;;9.80;99.90;;;;;;5035436;28;20234;-43
2022/03/13 09:02:06;;;;;;;16.70;9.50;;;9.90;99.90;;;;;;5034765;28;20173;-47
2022/03/13 09:04:32;;;;;;;19.27;10.40;;;10.00;99.90;;;;;;5035025;28;20543;-43
2022/03/13 09:06:58;;;;;;;16.23;9.33;;;10.20;99.90;;;;;;5034516;28;20201;-43
2022/03/13 09:09:24;;;;;;;16.03;10.13;;;10.30;99.90;;;;;;5034643;28;20185;-45
2022/03/13 09:11:53;;;;;;;17.77;12.13;;;10.50;99.90;;;;;;5034909;28;20188;-45
2022/03/13 09:14:19;;;;;;;14.93;9.53;;;10.60;99.90;;;;;;5034554;28;20212;-44
2022/03/13 09:16:45;;;;;;;20.07;9.80;;;10.80;99.90;;;;;;5034721;28;20271;-44
2022/03/13 09:19:12;;;;;;;15.67;9.23;;;10.90;99.90;;;;;;5034590;28;20605;-46
2022/03/13 09:21:40;;;;;;;19.97;10.47;;;10.90;99.90;;;;;;5034544;28;20648;-47
2022/03/13 09:24:08;;;;;;;6.03;3.97;;;10.90;99.90;;;;;;5034648;28;20196;-46
2022/03/13 09:26:34;;;;;;;16.40;10.10;;;11.00;99.90;;;;;;5034565;28;20215;-44
2022/03/13 09:29:02;;;;;;;15.07;9.93;;;11.00;99.90;;;;;;5034262;28;20191;-48
2022/03/13 09:31:27;;;;;;;14.83;9.47;;;11.10;99.90;;;;;;5016595;28;20188;-47
2022/03/13 09:33:53;;;;;;;15.20;8.97;;;11.20;99.90;;;;;;5034058;28;20203;-43
2022/03/13 09:36:19;;;;;;;14.17;9.20;;;11.30;99.90;;;;;;5034354;28;20219;-45
2022/03/13 09:38:44;;;;;;;13.37;9.93;;;11.40;99.90;;;;;;5034360;28;20738;-44
2022/03/13 09:41:10;;;;;;;11.60;7.97;;;11.40;99.90;;;;;;5033878;28;20188;-47
2022/03/13 09:43:35;;;;;;;17.70;10.70;;;11.40;99.90;;;;;;5034295;28;20251;-46
2022/03/13 09:46:01;;;;;;;14.60;8.87;;;11.40;99.90;;;;;;5034125;28;20306;-46
2022/03/13 09:48:27;;;;;;;18.83;10.77;;;11.50;99.90;;;;;;5034121;28;20266;-43
2022/03/13 09:50:54;;;;;;;16.07;10.73;;;11.60;99.90;;;;;;5033960;28;20173;-46
2022/03/13 09:53:20;;;;;;;13.57;8.03;;;11.70;99.90;;;;;;5016186;28;20191;-45
2022/03/13 09:55:46;;;;;;;15.13;10.43;;;11.90;99.90;;;;;;5034028;28;20196;-48
2022/03/13 09:58:12;;;;;;;15.50;10.37;;;12.00;99.90;;;;;;5016366;28;20603;-46
2022/03/13 10:00:39;;;;;;;16.77;10.47;;;12.00;99.90;;;;;;5033839;28;20178;-45
2022/03/13 10:03:08;;;;;;;19.33;11.37;;;12.10;99.90;;;;;;5033658;28;20188;-45
2022/03/13 10:05:44;;;;;;;20.90;10.40;;;12.20;99.90;;;;;;5034122;28;20216;-44
2022/03/13 10:08:11;;;;;;;14.33;10.03;;;12.20;99.90;;;;;;5033750;28;20215;-46
2022/03/13 10:10:48;;;;;;;20.77;10.83;;;12.30;99.90;;;;;;5033892;28;20263;-44
2022/03/13 10:13:33;;;;;;;12.63;7.90;;;12.40;99.90;;;;;;5034417;28;20259;-45
2022/03/13 10:15:59;;;;;;;16.20;9.63;;;12.60;99.90;;;;;;5033550;28;20178;-45
2022/03/13 10:18:25;;;;;;;15.00;10.93;;;12.80;99.90;;;;;;5033654;28;20266;-46
2022/03/13 10:20:52;;;;;;;16.00;10.57;;;12.80;99.90;;;;;;5033705;28;20181;-45
2022/03/13 10:23:22;;;;;;;15.70;10.43;;;12.90;99.90;;;;;;5033731;28;20544;-45
2022/03/13 10:25:52;;;;;;;12.37;8.50;;;13.00;99.90;;;;;;5033733;28;20181;-45
2022/03/13 10:28:28;;;;;;;17.50;10.77;;;13.10;99.90;;;;;;5033505;28;20199;-44
2022/03/13 10:31:00;;;;;;;19.07;11.40;;;13.20;99.90;;;;;;5033632;28;20195;-45
2022/03/13 10:33:43;;;;;;;16.83;10.57;;;13.20;99.90;;;;;;5015498;28;20196;-47
2022/03/13 10:36:37;;;;;;;15.27;9.23;;;13.30;99.90;;;;;;5033499;28;20276;-46
2022/03/13 10:39:05;;;;;;;17.87;11.70;;;13.40;99.90;;;;;;5033470;28;20207;-48
2022/03/13 10:41:44;;;;;;;19.97;11.60;;;13.50;99.90;;;;;;5033550;28;20599;-46
2022/03/13 10:44:20;;;;;;;19.03;11.07;;;13.70;99.90;;;;;;5033558;28;20175;-46
2022/03/13 10:46:56;;;;;;;15.97;9.40;;;13.80;99.90;;;;;;5033669;28;20219;-45
2022/03/13 10:49:36;;;;;;;15.73;10.67;;;13.90;99.90;;;;;;5033647;28;20176;-40
2022/03/13 10:52:21;;;;;;;14.10;10.40;;;14.00;99.90;;;;;;5033894;28;20169;-39
2022/03/13 10:54:47;;;;;;;17.10;10.80;;;14.00;99.90;;;;;;5037469;28;20227;-40
2022/03/13 10:57:13;;;;;;;14.00;9.97;;;14.10;99.90;;;;;;5019376;28;20209;-39
2022/03/13 10:59:43;;;;;;;17.50;12.20;;;14.30;99.90;;;;;;5037162;28;20185;-39
2022/03/13 11:02:16;;;;;;;18.70;11.67;;;14.40;99.90;;;;;;5037332;28;20169;-42
2022/03/13 11:05:00;;;;;;;16.03;10.13;;;14.40;99.90;;;;;;5037076;28;20177;-43
2022/03/13 11:07:27;;;;;;;14.93;10.90;;;14.50;99.90;;;;;;5037083;28;20295;-40
2022/03/13 11:09:55;;;;;;;16.53;11.10;;;14.60;99.90;;;;;;5037031;28;20176;-40
2022/03/13 11:12:21;;;;;;;19.27;11.67;;;14.80;99.90;;;;;;5037296;28;20797;-38
2022/03/13 11:14:49;;;;;;;16.37;10.27;;;14.90;99.90;;;;;;5019256;28;20201;-42
2022/03/13 11:17:17;;;;;;;15.37;11.20;;;15.00;99.90;;;;;;5036910;28;20227;-42
2022/03/13 11:19:45;;;;;;;14.27;9.87;;;15.10;99.90;;;;;;5036887;28;20207;-41
2022/03/13 11:22:11;;;;;;;18.37;11.20;;;15.20;99.90;;;;;;5037009;28;20220;-41
2022/03/13 11:24:38;;;;;;;16.00;10.87;;;15.30;99.90;;;;;;5018922;28;20184;-42
2022/03/13 11:27:08;;;;;;;16.70;10.53;;;15.40;99.90;;;;;;5036539;28;20212;-40
2022/03/13 11:29:50;;;;;;;15.80;11.07;;;15.50;99.90;;;;;;5036853;28;20173;-41
2022/03/13 11:32:33;;;;;;;16.57;11.10;;;15.60;99.90;;;;;;5036720;28;20204;-41
2022/03/13 11:35:11;;;;;;;17.27;11.13;;;15.70;99.90;;;;;;5036686;28;20277;-41
2022/03/13 11:37:38;;;;;;;13.90;10.67;;;15.80;99.90;;;;;;5036596;28;20200;-41
2022/03/13 11:40:05;;;;;;;21.80;11.70;;;15.80;99.90;;;;;;5036703;28;20762;-43
2022/03/13 11:43:07;;;;;;;18.17;10.73;;;16.00;99.90;;;;;;5036588;28;20185;-42
2022/03/13 11:45:38;;;;;;;14.37;9.47;;;16.10;99.90;;;;;;5011773;28;20193;-42
2022/03/13 11:48:22;;;;;;;13.73;10.07;;;16.10;99.90;;;;;;5036515;28;20258;-42
2022/03/13 11:51:03;;;;;;;15.07;10.37;;;16.20;99.90;;;;;;5036491;28;20165;-43
2022/03/13 11:53:40;;;;;;;13.83;10.53;;;16.40;99.90;;;;;;5036416;28;20177;-42
2022/03/13 11:56:09;;;;;;;15.37;10.33;;;16.50;99.90;;;;;;5036400;28;20230;-42
2022/03/13 11:58:45;;;;;;;15.77;10.73;;;16.70;99.90;;;;;;5036246;28;20227;-41
2022/03/13 12:01:18;;;;;;;16.47;11.47;;;16.80;99.90;;;;;;5036233;28;20185;-43
2022/03/13 12:04:09;;;;;;;16.80;10.47;;;16.80;99.90;;;;;;5018316;28;20260;-41
2022/03/13 12:06:46;;;;;;;13.70;10.23;;;16.90;99.90;;;;;;5036615;28;20288;-43
2022/03/13 12:09:35;;;;;;;13.13;10.27;;;17.00;99.90;;;;;;5036223;28;20191;-41
2022/03/13 12:12:06;;;;;;;14.27;10.63;;;17.00;99.90;;;;;;5025440;28;20279;-42
2022/03/13 12:15:04;;;;;;;13.37;10.13;;;17.10;99.90;;;;;;5036089;28;20184;-42
2022/03/13 12:17:44;;;;;;;13.70;9.47;;;17.20;99.90;;;;;;5030240;28;20213;-41
2022/03/13 12:20:24;;;;;;;14.23;9.57;;;17.30;99.90;;;;;;5035914;28;20199;-42
2022/03/13 12:22:56;;;;;;;13.83;10.23;;;17.40;99.90;;;;;;5036159;28;20211;-42
2022/03/13 12:25:27;;;;;;;11.87;9.17;;;17.50;99.90;;;;;;5035780;28;20173;-41
2022/03/13 12:27:56;;;;;;;12.90;10.07;;;17.50;99.90;;;;;;5035874;28;20246;-41
2022/03/13 12:30:26;;;;;;;14.00;10.57;;;17.60;99.90;;;;;;5035829;28;20235;-43
2022/03/13 12:32:59;;;;;;;15.07;11.37;;;17.70;99.90;;;;;;5035610;28;20607;-40
2022/03/13 12:35:26;;;;;;;12.53;9.93;;;17.70;99.90;;;;;;5035971;28;20177;-43
2022/03/13 12:37:54;;;;;;;16.80;10.77;;;17.80;99.90;;;;;;5037875;28;20205;-42
2022/03/13 12:40:23;;;;;;;16.37;10.53;;;17.90;99.90;;;;;;5038242;28;20176;-43
2022/03/13 12:42:56;;;;;;;13.33;9.57;;;18.00;99.90;;;;;;5037970;28;20181;-42
2022/03/13 12:45:23;;;;;;;12.53;9.97;;;18.10;99.90;;;;;;5035751;28;20258;-41
2022/03/13 12:47:53;;;;;;;14.20;9.83;;;18.20;99.90;;;;;;5035534;28;20212;-42